Time;durP1;ratioP1;P1;durP2;ratioP2;P2;SDS_P1;SDS_P2;PMS_P1;PMS_P2;Temp;Humidity;BMP_temperature;BMP_pressure;BME280_temperature;BME280_humidity;BME280_pressure;Samples;Min_cycle;Max_cycle;Signal;HPM_P1;HPM_P2
2023/02/10 00:00:16;;;;;;;22.60;13.20;;;-1.50;99.90;;;;;;6180830;23;20411;-78
2023/02/10 00:02:43;;;;;;;18.90;12.03;;;-1.60;99.90;;;;;;6179756;23;20411;-79
2023/02/10 00:05:10;;;;;;;19.93;11.83;;;-1.50;99.90;;;;;;6179920;23;20408;-78
2023/02/10 00:07:37;;;;;;;21.10;13.30;;;-1.40;99.90;;;;;;6180329;23;20409;-78
2023/02/10 00:10:04;;;;;;;24.00;12.83;;;-1.50;99.90;;;;;;6180907;23;20402;-77
2023/02/10 00:12:31;;;;;;;22.83;12.90;;;-1.40;99.90;;;;;;6179394;23;20437;-78
2023/02/10 00:14:59;;;;;;;17.40;12.03;;;-1.50;99.90;;;;;;6180329;23;20450;-78
2023/02/10 00:17:26;;;;;;;21.90;11.83;;;-1.60;99.90;;;;;;6181534;23;20415;-80
2023/02/10 00:19:52;;;;;;;15.40;10.07;;;-1.60;99.90;;;;;;6180110;23;20494;-78
2023/02/10 00:22:19;;;;;;;21.33;11.73;;;-1.60;99.90;;;;;;6179547;23;20443;-77
2023/02/10 00:24:46;;;;;;;16.63;12.23;;;-1.50;99.90;;;;;;6179755;23;20426;-79
2023/02/10 00:27:13;;;;;;;26.90;14.33;;;-1.50;99.90;;;;;;6179847;23;20419;-78
2023/02/10 00:29:40;;;;;;;24.80;12.07;;;-1.60;99.90;;;;;;6180012;23;20430;-77
2023/02/10 00:32:10;;;;;;;20.03;11.87;;;-1.60;99.90;;;;;;6179493;23;20498;-77
2023/02/10 00:34:37;;;;;;;21.63;12.03;;;-1.70;99.90;;;;;;6179217;23;20471;-77
2023/02/10 00:37:03;;;;;;;23.87;14.10;;;-1.80;99.90;;;;;;6179647;23;20920;-78
2023/02/10 00:39:30;;;;;;;20.63;11.80;;;-1.80;99.90;;;;;;6179983;23;20411;-77
2023/02/10 00:41:57;;;;;;;23.30;12.77;;;-1.90;99.90;;;;;;6180312;23;20950;-77
2023/02/10 00:44:24;;;;;;;16.97;11.10;;;-1.90;99.90;;;;;;6179908;23;20411;-77
2023/02/10 00:46:50;;;;;;;24.77;12.23;;;-1.90;99.90;;;;;;6180411;23;20938;-72
2023/02/10 00:49:18;;;;;;;20.67;11.00;;;-1.90;99.90;;;;;;6180488;23;20493;-78
2023/02/10 00:51:45;;;;;;;20.43;11.43;;;-1.90;99.90;;;;;;6180254;23;20412;-77
2023/02/10 00:54:13;;;;;;;17.83;11.13;;;-1.90;99.90;;;;;;6179918;23;20408;-77
2023/02/10 00:56:40;;;;;;;24.20;14.03;;;-1.90;99.90;;;;;;6179908;23;20517;-78
2023/02/10 00:59:06;;;;;;;23.50;10.97;;;-1.80;99.90;;;;;;6179789;23;20422;-77
2023/02/10 01:01:33;;;;;;;23.27;11.53;;;-1.80;99.90;;;;;;6180149;23;20443;-78
2023/02/10 01:04:00;;;;;;;19.00;9.70;;;-1.80;99.90;;;;;;6179060;23;20415;-77
2023/02/10 01:06:28;;;;;;;23.57;10.77;;;-1.80;99.90;;;;;;6179883;23;20427;-78
2023/02/10 01:08:54;;;;;;;18.43;11.93;;;-1.90;99.90;;;;;;6179958;23;20412;-78
2023/02/10 01:11:21;;;;;;;17.10;10.73;;;-1.80;99.90;;;;;;6179410;23;20403;-77
2023/02/10 01:13:48;;;;;;;26.23;11.37;;;-1.70;99.90;;;;;;6179648;23;20414;-78
2023/02/10 01:16:17;;;;;;;15.67;9.60;;;-1.90;99.90;;;;;;6179077;23;20765;-77
2023/02/10 01:18:44;;;;;;;23.30;11.17;;;-1.90;99.90;;;;;;6179341;23;20404;-77
2023/02/10 01:21:14;;;;;;;17.97;10.70;;;-1.80;99.90;;;;;;6179745;23;20474;-78
2023/02/10 01:23:42;;;;;;;18.83;11.60;;;-1.80;99.90;;;;;;6179847;23;20395;-77
2023/02/10 01:26:10;;;;;;;17.20;10.47;;;-1.60;99.90;;;;;;6179920;23;20413;-77
2023/02/10 01:28:36;;;;;;;24.40;11.40;;;-1.60;99.90;;;;;;6180365;23;20402;-78
2023/02/10 01:31:06;;;;;;;16.97;11.70;;;-1.60;99.90;;;;;;6179895;23;20403;-77
2023/02/10 01:33:33;;;;;;;16.90;10.10;;;-1.60;99.90;;;;;;6179454;23;20399;-77
2023/02/10 01:36:04;;;;;;;17.60;9.93;;;-1.20;99.90;;;;;;6179765;23;20562;-77
2023/02/10 01:38:31;;;;;;;19.93;10.60;;;-1.90;99.90;;;;;;6179708;23;20400;-78
2023/02/10 01:40:59;;;;;;;21.53;9.80;;;-1.80;99.90;;;;;;6178997;23;20412;-77
2023/02/10 01:43:26;;;;;;;21.53;11.00;;;-1.90;99.90;;;;;;6179759;23;20404;-77
2023/02/10 01:45:53;;;;;;;17.90;10.57;;;-1.90;99.90;;;;;;6181402;23;20757;-78
2023/02/10 01:48:21;;;;;;;13.97;10.30;;;-1.90;99.90;;;;;;6182446;23;20417;-77
2023/02/10 01:50:52;;;;;;;16.80;10.17;;;-1.90;99.90;;;;;;6181519;23;20920;-77
2023/02/10 01:53:20;;;;;;;13.87;10.03;;;-1.90;99.90;;;;;;6182384;23;20513;-77
2023/02/10 01:55:50;;;;;;;21.90;10.07;;;-2.00;99.90;;;;;;6186883;23;20420;-78
2023/02/10 01:58:23;;;;;;;18.97;12.33;;;-2.10;99.90;;;;;;6189250;23;20450;-78
2023/02/10 02:00:49;;;;;;;21.50;12.17;;;-2.30;99.90;;;;;;6189119;23;20400;-77
2023/02/10 02:03:17;;;;;;;17.63;10.23;;;-2.40;99.90;;;;;;6183236;23;20410;-77
2023/02/10 02:05:44;;;;;;;20.47;12.03;;;-2.40;99.90;;;;;;6184417;23;20407;-80
2023/02/10 02:08:16;;;;;;;21.80;10.97;;;-2.60;99.90;;;;;;6189132;23;20407;-82
2023/02/10 02:10:59;;;;;;;22.87;11.83;;;-2.30;99.90;;;;;;6182175;23;20454;-77
2023/02/10 02:13:36;;;;;;;22.43;12.20;;;-2.30;99.90;;;;;;6180730;23;20618;-78
2023/02/10 02:16:13;;;;;;;26.13;12.33;;;-2.20;99.90;;;;;;6180902;23;20892;-77
2023/02/10 02:18:45;;;;;;;18.57;11.00;;;-2.20;99.90;;;;;;6181282;23;20467;-77
2023/02/10 02:21:52;;;;;;;23.60;12.20;;;-2.20;99.90;;;;;;6181520;23;20410;-78
2023/02/10 02:24:52;;;;;;;25.43;12.97;;;-2.10;99.90;;;;;;6181211;23;20947;-77
2023/02/10 02:27:49;;;;;;;20.87;13.17;;;-2.00;99.90;;;;;;6181467;23;20378;-78
2023/02/10 02:30:46;;;;;;;20.80;12.47;;;-2.00;99.90;;;;;;6170363;23;20429;-77
2023/02/10 02:33:18;;;;;;;33.90;13.57;;;-2.10;99.90;;;;;;6180528;23;20414;-77
2023/02/10 02:35:50;;;;;;;23.43;13.97;;;-2.10;99.90;;;;;;6180270;23;20443;-78
2023/02/10 02:38:17;;;;;;;21.47;11.47;;;-2.00;99.90;;;;;;6180833;23;20396;-77
2023/02/10 02:40:44;;;;;;;21.67;11.63;;;-2.00;99.90;;;;;;6180680;23;20406;-77
2023/02/10 02:43:11;;;;;;;22.30;11.37;;;-2.00;99.90;;;;;;6181012;23;20449;-77
2023/02/10 02:45:47;;;;;;;28.00;13.20;;;-2.10;99.90;;;;;;6180736;23;20422;-77
2023/02/10 02:48:31;;;;;;;20.47;11.13;;;-2.10;99.90;;;;;;6180085;23;20869;-77
2023/02/10 02:51:05;;;;;;;18.53;10.90;;;-2.10;99.90;;;;;;6180538;23;20409;-77
2023/02/10 02:53:39;;;;;;;20.07;12.17;;;-2.10;99.90;;;;;;6180712;23;20458;-78
2023/02/10 02:56:19;;;;;;;26.60;11.60;;;-2.10;99.90;;;;;;6180564;23;20465;-77
2023/02/10 02:58:54;;;;;;;26.90;13.33;;;-2.20;99.90;;;;;;6179830;23;20528;-78
2023/02/10 03:01:26;;;;;;;21.63;11.47;;;-2.20;99.90;;;;;;6180624;23;20397;-77
2023/02/10 03:03:56;;;;;;;20.80;10.97;;;-2.10;99.90;;;;;;6180198;23;20454;-77
2023/02/10 03:06:22;;;;;;;20.00;10.40;;;-2.00;99.90;;;;;;6180126;23;20735;-78
2023/02/10 03:08:50;;;;;;;18.23;10.60;;;-2.10;99.90;;;;;;6180025;23;20415;-78
2023/02/10 03:11:17;;;;;;;18.87;9.30;;;-2.00;99.90;;;;;;6179434;23;20418;-77
2023/02/10 03:13:43;;;;;;;16.30;10.73;;;-2.00;99.90;;;;;;6179845;23;20410;-77
2023/02/10 03:16:10;;;;;;;13.33;9.53;;;-2.00;99.90;;;;;;6180466;23;20471;-77
2023/02/10 03:18:37;;;;;;;18.77;10.30;;;-1.90;99.90;;;;;;6180311;23;20422;-77
2023/02/10 03:21:06;;;;;;;18.47;10.50;;;-1.90;99.90;;;;;;6179384;23;20407;-76
2023/02/10 03:23:32;;;;;;;19.77;12.13;;;-1.90;99.90;;;;;;6180237;23;20435;-81
2023/02/10 03:25:59;;;;;;;19.40;11.20;;;-2.20;99.90;;;;;;6180540;23;20953;-78
2023/02/10 03:28:27;;;;;;;16.93;9.30;;;-2.30;99.90;;;;;;6180147;23;20407;-78
2023/02/10 03:30:55;;;;;;;19.23;9.90;;;-2.40;99.90;;;;;;6180268;23;20434;-77
2023/02/10 03:33:22;;;;;;;17.57;9.40;;;-2.20;99.90;;;;;;6180355;23;20444;-77
2023/02/10 03:35:50;;;;;;;17.10;10.50;;;-2.20;99.90;;;;;;6179963;23;20433;-78
2023/02/10 03:38:18;;;;;;;18.00;9.83;;;-2.10;99.90;;;;;;6179955;23;20415;-77
2023/02/10 03:40:45;;;;;;;20.03;10.47;;;-2.00;99.90;;;;;;6180566;23;20412;-78
2023/02/10 03:43:11;;;;;;;16.87;9.60;;;-2.10;99.90;;;;;;6180453;23;20783;-77
2023/02/10 03:45:40;;;;;;;26.03;10.90;;;-2.20;99.90;;;;;;6180293;23;20411;-77
2023/02/10 03:48:07;;;;;;;14.00;9.10;;;-2.30;99.90;;;;;;6180421;23;20725;-77
2023/02/10 03:50:33;;;;;;;16.20;10.13;;;-2.20;99.90;;;;;;6180509;23;20440;-77
2023/02/10 03:53:00;;;;;;;14.40;9.33;;;-2.00;99.90;;;;;;6180671;23;20445;-77
2023/02/10 03:55:28;;;;;;;15.47;8.93;;;-2.00;99.90;;;;;;6180142;23;20415;-77
2023/02/10 03:57:55;;;;;;;19.47;11.43;;;-2.10;99.90;;;;;;6179943;23;20457;-77
2023/02/10 04:00:22;;;;;;;24.50;9.73;;;-2.20;99.90;;;;;;6181712;23;20885;-80
2023/02/10 04:02:49;;;;;;;20.57;9.07;;;-2.10;99.90;;;;;;6183990;23;20446;-78
2023/02/10 04:05:16;;;;;;;19.17;8.00;;;-2.10;99.90;;;;;;6183952;23;20415;-79
2023/02/10 04:07:43;;;;;;;12.20;9.10;;;-2.00;99.90;;;;;;6188387;23;20892;-79
2023/02/10 04:10:10;;;;;;;17.23;9.57;;;-2.10;99.90;;;;;;6187364;23;20403;-79
2023/02/10 04:12:38;;;;;;;14.37;8.70;;;-2.10;99.90;;;;;;6186757;23;20718;-80
2023/02/10 04:15:06;;;;;;;21.63;9.33;;;-2.10;99.90;;;;;;6190745;23;20415;-80
2023/02/10 04:17:33;;;;;;;14.80;8.70;;;-2.10;99.90;;;;;;6186423;23;20399;-81
2023/02/10 04:20:00;;;;;;;15.43;9.77;;;-2.20;99.90;;;;;;6193021;23;20474;-87
2023/02/10 04:22:26;;;;;;;17.23;10.50;;;-2.10;99.90;;;;;;6195014;23;20446;-89
2023/02/10 04:24:53;;;;;;;16.20;8.37;;;-2.20;99.90;;;;;;6190171;23;20907;-90
2023/02/10 04:27:20;;;;;;;18.07;10.20;;;-2.30;99.90;;;;;;6192067;23;20426;-89
2023/02/10 04:29:48;;;;;;;19.53;9.40;;;-2.20;99.90;;;;;;6201024;23;20435;-88
2023/02/10 04:32:15;;;;;;;15.17;9.47;;;-2.10;99.90;;;;;;6208966;23;20423;-89
2023/02/10 04:34:41;;;;;;;19.33;9.90;;;-2.10;99.90;;;;;;6210721;23;20677;-88
2023/02/10 04:37:08;;;;;;;17.10;9.47;;;-2.40;99.90;;;;;;6209113;23;20420;-88
2023/02/10 04:44:47;;;;;;;15.87;7.97;;;-2.40;99.90;;;;;;6202622;23;20442;-82
2023/02/10 04:47:14;;;;;;;19.43;8.80;;;-2.50;99.90;;;;;;6213849;23;20399;-82
2023/02/10 04:49:41;;;;;;;14.30;8.03;;;-2.30;99.90;;;;;;6212104;23;20483;-82
2023/02/10 04:52:08;;;;;;;11.37;8.67;;;-2.20;99.90;;;;;;6206128;23;20675;-84
2023/02/10 04:54:34;;;;;;;13.87;7.97;;;-2.30;99.90;;;;;;6211956;23;20488;-83
2023/02/10 04:57:01;;;;;;;12.00;7.23;;;-2.20;99.90;;;;;;6206233;23;20412;-82
2023/02/10 04:59:28;;;;;;;11.73;6.80;;;-3.00;99.90;;;;;;6203003;23;20415;-82
2023/02/10 05:01:56;;;;;;;11.30;8.03;;;-1.80;99.90;;;;;;6200509;23;20391;-81
2023/02/10 05:04:23;;;;;;;11.60;7.47;;;-2.40;99.90;;;;;;6204213;23;20427;-82
2023/02/10 05:06:50;;;;;;;15.60;8.13;;;-2.50;99.90;;;;;;6208955;23;20438;-84
2023/02/10 05:09:17;;;;;;;11.47;7.23;;;-3.00;99.90;;;;;;6212199;23;20430;-82
2023/02/10 05:11:44;;;;;;;9.23;6.50;;;-2.30;99.90;;;;;;6213474;23;20417;-86
2023/02/10 05:16:46;;;;;;;12.50;7.93;;;-2.60;99.90;;;;;;6198378;23;20453;-82
2023/02/10 05:19:14;;;;;;;11.97;7.17;;;-2.70;99.90;;;;;;6209170;23;20466;-82
2023/02/10 05:21:41;;;;;;;17.37;7.50;;;-2.60;99.90;;;;;;6194893;23;20481;-80
2023/02/10 05:24:08;;;;;;;14.17;8.00;;;-2.60;99.90;;;;;;6206284;23;20445;-79
2023/02/10 05:26:34;;;;;;;12.63;7.20;;;-2.50;99.90;;;;;;6200814;23;20458;-81
2023/02/10 05:31:37;;;;;;;13.67;6.77;;;-2.50;99.90;;;;;;6203553;23;20457;-80
2023/02/10 05:34:03;;;;;;;8.43;6.30;;;-2.60;99.90;;;;;;6208552;23;20426;-90
2023/02/10 05:36:32;;;;;;;14.97;7.27;;;-2.80;99.90;;;;;;6206390;23;20430;-86
2023/02/10 05:41:43;;;;;;;10.23;6.17;;;-2.90;99.90;;;;;;6207901;23;20394;-86
2023/02/10 05:44:09;;;;;;;13.40;6.23;;;-2.80;99.90;;;;;;6208633;23;20514;-87
2023/02/10 05:46:36;;;;;;;14.77;6.43;;;-2.70;99.90;;;;;;6207897;23;20394;-88
2023/02/10 05:49:03;;;;;;;11.10;6.80;;;-2.80;99.90;;;;;;6209484;23;20404;-86
2023/02/10 05:51:31;;;;;;;12.50;6.80;;;-2.80;99.90;;;;;;6207551;23;20414;-82
2023/02/10 05:53:58;;;;;;;12.60;8.87;;;-2.90;99.90;;;;;;6206142;23;20983;-81
2023/02/10 05:56:25;;;;;;;12.27;6.20;;;-3.40;99.90;;;;;;6207590;23;20463;-79
2023/02/10 05:58:52;;;;;;;13.07;7.07;;;-3.00;99.90;;;;;;6182826;23;20755;-80
2023/02/10 06:01:18;;;;;;;11.67;7.27;;;-3.00;99.90;;;;;;6188262;23;20505;-78
2023/02/10 06:03:45;;;;;;;10.07;6.50;;;-3.20;99.90;;;;;;6187943;23;20454;-80
2023/02/10 06:06:12;;;;;;;13.43;7.90;;;-3.10;99.90;;;;;;6204021;23;20497;-80
2023/02/10 06:08:40;;;;;;;11.77;6.70;;;-2.90;99.90;;;;;;6198221;23;20416;-85
2023/02/10 06:11:07;;;;;;;15.60;7.17;;;-3.20;99.90;;;;;;6203495;23;20482;-80
2023/02/10 06:13:33;;;;;;;7.40;6.10;;;-3.00;99.90;;;;;;6205652;23;20470;-81
2023/02/10 06:16:01;;;;;;;13.33;6.60;;;-2.90;99.90;;;;;;6208594;23;20601;-77
2023/02/10 06:18:28;;;;;;;8.23;6.30;;;-2.90;99.90;;;;;;6191662;23;20969;-80
2023/02/10 06:44:14;;;;;;;13.40;6.60;;;-3.10;99.90;;;;;;6207122;23;20459;-79
2023/02/10 06:49:16;;;;;;;10.87;6.30;;;-3.00;99.90;;;;;;6212714;22;20442;-80
2023/02/10 06:51:43;;;;;;;11.27;5.57;;;-3.20;99.90;;;;;;6187532;23;20407;-75
2023/02/10 06:54:10;;;;;;;10.97;5.90;;;-3.00;99.90;;;;;;6186107;23;20410;-78
2023/02/10 06:56:36;;;;;;;15.67;6.80;;;-3.00;99.90;;;;;;6186760;23;20498;-80
2023/02/10 06:59:03;;;;;;;9.97;7.20;;;-2.90;99.90;;;;;;6181855;23;20408;-75
2023/02/10 07:01:31;;;;;;;13.00;6.87;;;-3.00;99.90;;;;;;6180047;23;20407;-74
2023/02/10 07:03:58;;;;;;;15.53;6.90;;;-3.00;99.90;;;;;;6178748;23;20449;-75
2023/02/10 07:06:25;;;;;;;10.10;5.50;;;-2.40;99.90;;;;;;6178573;23;20440;-74
2023/02/10 07:08:52;;;;;;;8.47;5.23;;;-2.80;99.90;;;;;;6179078;23;20402;-74
2023/02/10 07:11:18;;;;;;;13.37;6.43;;;-2.80;99.90;;;;;;6179711;23;20411;-74
2023/02/10 07:13:45;;;;;;;13.93;7.63;;;-2.80;99.90;;;;;;6179352;23;20409;-77
2023/02/10 07:16:14;;;;;;;16.30;7.13;;;-2.70;99.90;;;;;;6179900;23;20748;-77
2023/02/10 07:18:42;;;;;;;13.17;7.87;;;-2.60;99.90;;;;;;6179270;23;20501;-78
2023/02/10 07:21:09;;;;;;;11.90;6.80;;;-2.40;99.90;;;;;;6179532;23;20402;-76
2023/02/10 07:23:36;;;;;;;12.60;5.80;;;-2.60;99.90;;;;;;6181136;23;20443;-77
2023/02/10 07:26:04;;;;;;;8.97;6.50;;;-2.60;99.90;;;;;;6180639;23;20411;-77
2023/02/10 07:28:31;;;;;;;12.97;7.47;;;-2.50;99.90;;;;;;6180212;23;20820;-76
2023/02/10 07:30:58;;;;;;;10.50;7.50;;;-2.40;99.90;;;;;;6183496;23;20416;-78
2023/02/10 07:33:25;;;;;;;16.00;6.97;;;-2.30;99.90;;;;;;6181183;23;20417;-77
2023/02/10 07:35:53;;;;;;;13.50;7.27;;;-2.30;99.90;;;;;;6180913;23;20407;-77
2023/02/10 07:38:20;;;;;;;14.77;6.63;;;-2.30;99.90;;;;;;6180904;23;20418;-78
2023/02/10 07:40:46;;;;;;;11.30;7.20;;;-2.40;99.90;;;;;;6180076;23;20966;-77
2023/02/10 07:43:13;;;;;;;13.40;6.50;;;-2.30;99.90;;;;;;6180268;23;20442;-77
2023/02/10 07:45:40;;;;;;;10.83;6.20;;;-2.10;99.90;;;;;;6180328;23;20407;-77
2023/02/10 07:48:07;;;;;;;11.63;7.60;;;-2.20;99.90;;;;;;6179878;23;20461;-77
2023/02/10 07:50:34;;;;;;;12.43;6.53;;;-2.10;99.90;;;;;;6189538;23;20417;-81
2023/02/10 07:53:02;;;;;;;11.30;6.20;;;-2.10;99.90;;;;;;6192359;23;20423;-79
2023/02/10 07:55:29;;;;;;;12.97;5.53;;;-1.90;99.90;;;;;;6183728;23;20491;-79
2023/02/10 07:57:55;;;;;;;10.80;5.77;;;-1.80;99.90;;;;;;6190363;23;20415;-81
2023/02/10 08:00:22;;;;;;;10.50;6.27;;;-1.70;99.90;;;;;;6183957;23;20409;-76
2023/02/10 08:02:49;;;;;;;16.50;7.27;;;-1.70;99.90;;;;;;6181438;23;20421;-77
2023/02/10 08:05:16;;;;;;;13.70;6.63;;;-1.70;99.90;;;;;;6180359;23;20523;-77
2023/02/10 08:07:43;;;;;;;18.93;7.07;;;-1.50;99.90;;;;;;6183651;23;20407;-78
2023/02/10 08:10:11;;;;;;;13.70;6.97;;;-1.30;99.90;;;;;;6183035;23;20415;-79
2023/02/10 08:12:38;;;;;;;6.87;6.20;;;-1.20;99.90;;;;;;6186362;23;20415;-79
2023/02/10 08:15:06;;;;;;;13.80;6.60;;;-1.40;99.90;;;;;;6184651;23;20404;-80
2023/02/10 08:17:33;;;;;;;14.50;7.63;;;-1.30;99.90;;;;;;6185734;23;20410;-77
2023/02/10 08:19:59;;;;;;;11.93;7.87;;;-0.70;99.90;;;;;;6180754;23;20423;-78
2023/02/10 08:22:27;;;;;;;9.97;5.50;;;-0.70;99.90;;;;;;6180928;23;20408;-82
2023/02/10 08:24:53;;;;;;;9.70;7.03;;;-0.40;99.90;;;;;;6179854;23;20542;-80
2023/02/10 08:27:21;;;;;;;32.83;14.50;;;-0.30;99.90;;;;;;6182117;23;20427;-80
2023/02/10 08:29:48;;;;;;;18.23;6.40;;;-0.30;99.90;;;;;;6181678;23;20441;-81
2023/02/10 08:32:18;;;;;;;10.10;5.97;;;0.00;99.90;;;;;;6179990;23;20426;-77
2023/02/10 08:34:45;;;;;;;13.50;7.70;;;0.30;99.90;;;;;;6179580;23;20438;-78
2023/02/10 08:37:12;;;;;;;11.17;7.50;;;0.80;99.90;;;;;;6179558;23;20436;-80
2023/02/10 08:39:39;;;;;;;13.77;7.00;;;0.90;99.90;;;;;;6182380;23;20729;-80
2023/02/10 08:42:06;;;;;;;14.73;7.40;;;1.30;99.90;;;;;;6181620;23;20411;-79
2023/02/10 08:44:34;;;;;;;12.60;7.57;;;0.70;99.90;;;;;;6180861;23;20443;-81
2023/02/10 08:47:02;;;;;;;18.17;7.80;;;0.80;99.90;;;;;;6179715;23;20738;-81
2023/02/10 08:49:29;;;;;;;15.50;7.57;;;0.90;99.90;;;;;;6180159;23;20391;-83
2023/02/10 08:51:55;;;;;;;13.80;7.80;;;1.00;99.90;;;;;;6183941;23;20429;-83
2023/02/10 08:54:23;;;;;;;14.10;8.30;;;1.40;99.90;;;;;;6199381;23;20411;-87
2023/02/10 08:56:54;;;;;;;15.03;7.93;;;1.80;99.90;;;;;;6184768;23;20601;-91
2023/02/10 08:59:21;;;;;;;14.60;8.30;;;2.10;99.90;;;;;;6184339;23;20402;-90
2023/02/10 09:01:50;;;;;;;15.13;8.07;;;1.60;99.90;;;;;;6188588;23;20760;-89
2023/02/10 09:04:16;;;;;;;15.57;8.30;;;2.10;99.90;;;;;;6196118;23;20443;-91
2023/02/10 09:06:43;;;;;;;16.27;9.50;;;1.70;99.90;;;;;;6194468;23;20431;-88
2023/02/10 09:09:11;;;;;;;17.63;9.73;;;2.20;99.90;;;;;;6190353;23;20470;-83
2023/02/10 09:11:39;;;;;;;19.83;11.77;;;1.30;99.90;;;;;;6187220;23;20425;-88
2023/02/10 09:14:05;;;;;;;15.30;10.97;;;2.60;99.90;;;;;;6189052;23;20498;-92
2023/02/10 09:16:32;;;;;;;16.33;9.90;;;3.90;99.90;;;;;;6185659;23;20415;-93
2023/02/10 09:19:01;;;;;;;14.27;9.67;;;4.40;99.90;;;;;;6184126;23;20410;-92
2023/02/10 09:21:28;;;;;;;22.50;11.73;;;5.10;99.90;;;;;;6189121;23;20487;-84
2023/02/10 09:23:55;;;;;;;18.00;10.87;;;4.00;99.90;;;;;;6191589;23;20439;-88
2023/02/10 09:26:22;;;;;;;18.80;11.80;;;3.80;99.90;;;;;;6199360;23;20400;-82
2023/02/10 09:28:49;;;;;;;18.70;13.73;;;3.10;99.90;;;;;;6201696;23;20465;-77
2023/02/10 09:31:16;;;;;;;19.97;13.47;;;3.20;99.90;;;;;;6182740;23;20407;-79
2023/02/10 09:33:44;;;;;;;17.83;11.73;;;3.60;99.90;;;;;;6186271;23;21076;-79
2023/02/10 09:36:15;;;;;;;25.33;16.00;;;4.10;99.90;;;;;;6183710;23;20727;-80
2023/02/10 09:38:42;;;;;;;26.03;16.17;;;2.90;99.90;;;;;;6184366;23;20384;-79
2023/02/10 09:41:18;;;;;;;23.33;15.00;;;3.20;99.90;;;;;;6185576;23;20412;-88
2023/02/10 09:44:00;;;;;;;30.73;16.43;;;2.50;99.90;;;;;;6184123;23;20446;-83
2023/02/10 09:46:37;;;;;;;23.17;15.83;;;2.30;99.90;;;;;;6181573;23;20388;-83
2023/02/10 09:49:20;;;;;;;26.03;14.80;;;2.30;99.90;;;;;;6185058;23;20443;-85
2023/02/10 09:51:59;;;;;;;28.57;17.60;;;3.60;99.90;;;;;;6188317;23;20388;-84
2023/02/10 09:54:31;;;;;;;38.70;17.20;;;2.60;99.90;;;;;;6182337;23;20400;-80
2023/02/10 09:56:59;;;;;;;34.77;18.03;;;2.50;99.90;;;;;;6186375;23;20407;-83
2023/02/10 09:59:26;;;;;;;30.93;18.87;;;2.80;99.90;;;;;;6183209;23;20430;-78
2023/02/10 10:01:56;;;;;;;35.13;19.97;;;2.60;99.90;;;;;;6180898;23;20487;-79
2023/02/10 10:04:23;;;;;;;28.67;16.77;;;2.40;99.90;;;;;;6181231;23;20439;-81
2023/02/10 10:06:55;;;;;;;26.60;16.93;;;2.80;99.90;;;;;;6180596;23;20439;-79
2023/02/10 10:09:31;;;;;;;27.13;16.67;;;2.60;99.90;;;;;;6184921;23;20397;-81
2023/02/10 10:11:59;;;;;;;23.43;15.90;;;3.70;99.90;;;;;;6186294;23;20385;-78
2023/02/10 10:14:28;;;;;;;28.23;16.30;;;4.40;99.90;;;;;;6180329;23;20412;-79
2023/02/10 10:17:31;;;;;;;28.87;16.00;;;4.30;99.90;;;;;;6182367;23;20478;-78
2023/02/10 10:20:14;;;;;;;27.90;18.10;;;4.20;99.90;;;;;;6183561;23;20384;-82
2023/02/10 10:22:53;;;;;;;31.50;16.83;;;3.60;99.90;;;;;;6180781;23;20392;-79
2023/02/10 10:25:43;;;;;;;27.17;16.30;;;3.50;99.90;;;;;;6181577;23;20618;-83
2023/02/10 10:28:23;;;;;;;27.30;15.67;;;4.00;99.90;;;;;;6184065;23;20392;-78
2023/02/10 10:30:56;;;;;;;28.60;16.77;;;4.70;99.90;;;;;;6180681;23;20387;-77
2023/02/10 10:33:26;;;;;;;30.30;16.07;;;5.10;99.90;;;;;;6181490;23;20532;-78
2023/02/10 10:35:54;;;;;;;25.50;15.90;;;4.50;99.90;;;;;;6186425;23;20408;-79
2023/02/10 10:38:24;;;;;;;30.37;20.33;;;3.90;99.90;;;;;;6181318;23;20482;-81
2023/02/10 10:40:55;;;;;;;28.90;16.90;;;3.70;99.90;;;;;;6181111;23;20394;-80
2023/02/10 10:43:26;;;;;;;25.07;15.23;;;3.70;99.90;;;;;;6181391;23;20388;-78
2023/02/10 10:45:57;;;;;;;30.10;17.90;;;4.30;99.90;;;;;;6183394;23;20389;-79
2023/02/10 10:48:27;;;;;;;30.33;19.63;;;4.30;99.90;;;;;;6183623;23;20435;-79
2023/02/10 10:50:56;;;;;;;29.00;17.87;;;4.30;99.90;;;;;;6181524;23;20411;-79
2023/02/10 10:53:36;;;;;;;29.47;17.73;;;4.60;99.90;;;;;;6180612;23;20432;-80
2023/02/10 10:56:06;;;;;;;39.13;20.87;;;4.50;99.90;;;;;;6181278;23;20388;-78
2023/02/10 10:58:37;;;;;;;35.87;18.53;;;4.10;99.90;;;;;;6181000;23;20741;-79
2023/02/10 11:01:06;;;;;;;27.77;16.60;;;4.60;99.90;;;;;;6183701;23;20388;-78
2023/02/10 11:03:33;;;;;;;27.43;16.47;;;6.20;99.90;;;;;;6181657;23;20411;-77
2023/02/10 11:06:05;;;;;;;32.27;18.27;;;7.50;99.90;;;;;;6183738;23;20416;-81
2023/02/10 11:08:38;;;;;;;34.87;17.60;;;6.10;99.90;;;;;;6182311;23;20487;-77
2023/02/10 11:11:09;;;;;;;29.80;20.53;;;7.00;99.90;;;;;;6181473;23;20516;-79
2023/02/10 11:13:40;;;;;;;29.50;16.97;;;5.50;99.90;;;;;;6182366;23;20870;-78
2023/02/10 11:16:11;;;;;;;29.37;18.47;;;5.90;99.90;;;;;;6179359;23;20408;-77
2023/02/10 11:18:39;;;;;;;39.73;18.80;;;6.10;99.90;;;;;;6180195;23;20914;-77
2023/02/10 11:21:08;;;;;;;29.27;17.53;;;7.00;99.90;;;;;;6181348;23;20411;-78
2023/02/10 11:23:48;;;;;;;29.63;18.37;;;8.60;99.90;;;;;;6180680;23;20404;-77
2023/02/10 11:26:21;;;;;;;26.83;17.90;;;9.70;99.90;;;;;;6180516;23;20563;-77
2023/02/10 11:28:47;;;;;;;28.33;17.80;;;8.30;99.90;;;;;;6180510;23;20404;-77
2023/02/10 11:31:26;;;;;;;29.47;17.57;;;8.50;99.90;;;;;;6181458;23;20700;-77
2023/02/10 11:33:58;;;;;;;30.47;21.30;;;8.10;99.90;;;;;;6181003;23;20392;-77
2023/02/10 11:36:34;;;;;;;31.03;20.13;;;6.40;99.90;;;;;;6185327;23;20384;-80
2023/02/10 11:39:05;;;;;;;29.40;18.17;;;5.90;99.90;;;;;;6184465;23;20418;-77
2023/02/10 11:41:34;;;;;;;26.17;16.27;;;6.20;99.90;;;;;;6181431;23;20396;-76
2023/02/10 11:44:02;;;;;;;29.43;20.37;;;7.70;99.90;;;;;;6180558;23;20411;-79
2023/02/10 11:46:31;;;;;;;26.20;18.33;;;6.50;99.90;;;;;;6183932;23;20419;-82
2023/02/10 11:49:00;;;;;;;28.83;15.93;;;6.20;99.90;;;;;;6183449;23;20439;-78
2023/02/10 11:51:28;;;;;;;30.07;18.47;;;7.90;99.90;;;;;;6179156;23;20412;-78
2023/02/10 11:53:56;;;;;;;46.13;33.50;;;10.10;99.90;;;;;;6183008;23;20499;-75
2023/02/10 11:59:11;;;;;;;23.63;17.80;;;;;;;;;;6186982;23;20392;-78
2023/02/10 12:01:45;;;;;;;27.50;18.77;;;;;;;;;;6182738;23;20385;-82
2023/02/10 12:04:17;;;;;;;24.30;17.73;;;;;;;;;;6183716;23;20427;-79
2023/02/10 12:06:47;;;;;;;25.90;16.37;;;;;;;;;;6183319;23;20396;-77
2023/02/10 12:09:17;;;;;;;27.40;15.67;;;;;;;;;;6180956;23;20396;-77
2023/02/10 12:11:49;;;;;;;26.70;17.47;;;;;;;;;;6181377;23;20420;-76
2023/02/10 12:14:27;;;;;;;28.70;17.90;;;;;;;;;;6181859;23;20388;-77
2023/02/10 12:17:01;;;;;;;23.37;15.83;;;;;;;;;;6181450;23;20704;-76
2023/02/10 12:19:34;;;;;;;26.50;17.43;;;;;;;;;;6183389;23;20416;-76
2023/02/10 12:22:06;;;;;;;28.30;18.83;;;;;;;;;;6186232;23;20487;-78
2023/02/10 12:24:47;;;;;;;36.17;17.93;;;;;;;;;;6185378;23;20894;-75
2023/02/10 12:27:17;;;;;;;22.83;17.90;;;;;;;;;;6187239;23;20448;-77
2023/02/10 12:29:50;;;;;;;26.80;18.50;;;;;;;;;;6191826;23;20408;-76
2023/02/10 12:32:23;;;;;;;28.20;18.67;;;;;;;;;;6188247;23;20949;-77
2023/02/10 12:35:03;;;;;;;26.67;17.90;;;13.50;99.90;;;;;;6188361;23;20392;-76
2023/02/10 12:37:39;;;;;;;21.80;17.00;;;14.10;99.90;;;;;;6185207;23;20399;-77
2023/02/10 12:40:32;;;;;;;25.10;17.00;;;13.70;99.90;;;;;;6183021;23;20407;-76
2023/02/10 12:43:12;;;;;;;23.27;17.60;;;10.90;99.90;;;;;;6180703;23;20384;-75
2023/02/10 12:45:46;;;;;;;24.90;18.50;;;9.30;99.90;;;;;;6183122;23;20448;-76
2023/02/10 12:48:25;;;;;;;25.70;17.97;;;8.00;99.90;;;;;;6183660;23;20495;-75
2023/02/10 12:51:08;;;;;;;31.77;19.00;;;7.90;99.90;;;;;;6184697;23;20392;-80
2023/02/10 12:53:38;;;;;;;22.77;15.83;;;7.20;99.90;;;;;;6187877;23;20432;-75
2023/02/10 12:56:11;;;;;;;24.50;15.80;;;9.70;99.90;;;;;;6187889;23;20418;-77
2023/02/10 12:58:42;;;;;;;24.13;16.57;;;12.10;99.90;;;;;;6189072;23;20724;-77
2023/02/10 13:01:28;;;;;;;22.27;17.20;;;9.30;99.90;;;;;;6182633;23;21130;-84
2023/02/10 13:04:05;;;;;;;27.90;16.03;;;7.10;99.90;;;;;;6180875;23;20443;-78
2023/02/10 13:06:35;;;;;;;20.80;15.90;;;8.60;99.90;;;;;;6182617;23;20848;-77
2023/02/10 13:09:12;;;;;;;25.13;15.83;;;8.50;99.90;;;;;;6175244;23;20423;-75
2023/02/10 13:11:44;;;;;;;24.73;15.47;;;10.50;99.90;;;;;;6175791;23;20398;-74
2023/02/10 13:14:18;;;;;;;32.87;17.03;;;9.40;99.90;;;;;;6175986;23;20710;-75
2023/02/10 13:16:50;;;;;;;23.50;16.80;;;8.80;99.90;;;;;;6175495;23;20642;-74
2023/02/10 13:19:27;;;;;;;24.17;14.60;;;9.00;99.90;;;;;;6173816;23;20391;-74
2023/02/10 13:21:59;;;;;;;17.80;14.47;;;8.60;99.90;;;;;;6174380;23;20431;-74
2023/02/10 13:24:32;;;;;;;20.90;13.93;;;8.80;99.90;;;;;;6173742;23;20820;-75
2023/02/10 13:27:14;;;;;;;20.60;14.77;;;12.00;99.90;;;;;;6174951;23;20392;-75
2023/02/10 13:29:51;;;;;;;24.60;15.80;;;12.20;99.90;;;;;;6175054;23;20409;-75
2023/02/10 13:32:33;;;;;;;25.07;17.17;;;8.50;99.90;;;;;;6176424;23;20454;-80